sensor_id;sensor_type;location;lat;lon;timestamp;P1;durP1;ratioP1;P2;durP2;ratioP2
14817;SDS011;7500;57.698;11.986;2023-07-29T00:01:10;3.47;;;2.60;;
14817;SDS011;7500;57.698;11.986;2023-07-29T00:03:37;4.33;;;2.70;;
14817;SDS011;7500;57.698;11.986;2023-07-29T00:06:03;3.43;;;2.40;;
14817;SDS011;7500;57.698;11.986;2023-07-29T00:08:30;4.60;;;2.40;;
14817;SDS011;7500;57.698;11.986;2023-07-29T00:10:56;3.20;;;2.70;;
14817;SDS011;7500;57.698;11.986;2023-07-29T00:13:23;3.00;;;2.67;;
14817;SDS011;7500;57.698;11.986;2023-07-29T00:15:52;3.50;;;2.73;;
14817;SDS011;7500;57.698;11.986;2023-07-29T00:18:19;3.53;;;2.77;;
14817;SDS011;7500;57.698;11.986;2023-07-29T00:20:45;3.30;;;2.60;;
14817;SDS011;7500;57.698;11.986;2023-07-29T00:23:12;4.17;;;2.83;;
14817;SDS011;7500;57.698;11.986;2023-07-29T00:25:39;4.33;;;2.80;;
14817;SDS011;7500;57.698;11.986;2023-07-29T00:28:05;4.77;;;2.87;;
14817;SDS011;7500;57.698;11.986;2023-07-29T00:30:32;4.73;;;2.80;;
14817;SDS011;7500;57.698;11.986;2023-07-29T00:33:00;3.10;;;2.80;;
14817;SDS011;7500;57.698;11.986;2023-07-29T00:35:26;2.97;;;2.43;;
14817;SDS011;7500;57.698;11.986;2023-07-29T00:37:53;2.60;;;2.30;;
14817;SDS011;7500;57.698;11.986;2023-07-29T00:40:20;3.13;;;2.67;;
14817;SDS011;7500;57.698;11.986;2023-07-29T00:42:47;3.17;;;2.73;;
14817;SDS011;7500;57.698;11.986;2023-07-29T00:45:13;4.47;;;2.80;;
14817;SDS011;7500;57.698;11.986;2023-07-29T00:47:40;4.03;;;2.80;;
14817;SDS011;7500;57.698;11.986;2023-07-29T00:50:09;3.63;;;2.73;;
14817;SDS011;7500;57.698;11.986;2023-07-29T00:52:37;2.87;;;2.67;;
14817;SDS011;7500;57.698;11.986;2023-07-29T00:55:04;3.10;;;2.80;;
14817;SDS011;7500;57.698;11.986;2023-07-29T00:57:31;5.07;;;3.10;;
14817;SDS011;7500;57.698;11.986;2023-07-29T00:59:57;4.30;;;3.20;;
14817;SDS011;7500;57.698;11.986;2023-07-29T01:02:24;5.70;;;3.30;;
14817;SDS011;7500;57.698;11.986;2023-07-29T01:04:52;3.93;;;3.10;;
14817;SDS011;7500;57.698;11.986;2023-07-29T01:07:21;5.47;;;2.90;;
14817;SDS011;7500;57.698;11.986;2023-07-29T01:09:51;3.10;;;2.90;;
14817;SDS011;7500;57.698;11.986;2023-07-29T01:12:21;3.97;;;2.77;;
14817;SDS011;7500;57.698;11.986;2023-07-29T01:14:51;4.47;;;3.00;;
14817;SDS011;7500;57.698;11.986;2023-07-29T01:17:22;3.37;;;3.00;;
14817;SDS011;7500;57.698;11.986;2023-07-29T01:19:54;4.20;;;3.00;;
14817;SDS011;7500;57.698;11.986;2023-07-29T01:22:23;4.40;;;2.80;;
14817;SDS011;7500;57.698;11.986;2023-07-29T01:24:52;4.20;;;3.10;;
14817;SDS011;7500;57.698;11.986;2023-07-29T01:27:18;3.97;;;3.27;;
14817;SDS011;7500;57.698;11.986;2023-07-29T01:29:45;3.50;;;3.20;;
14817;SDS011;7500;57.698;11.986;2023-07-29T01:32:13;3.00;;;2.80;;
14817;SDS011;7500;57.698;11.986;2023-07-29T01:34:41;3.37;;;3.07;;
14817;SDS011;7500;57.698;11.986;2023-07-29T01:37:09;5.70;;;3.23;;
14817;SDS011;7500;57.698;11.986;2023-07-29T01:39:38;4.47;;;3.03;;
14817;SDS011;7500;57.698;11.986;2023-07-29T01:42:06;4.03;;;3.10;;
14817;SDS011;7500;57.698;11.986;2023-07-29T01:44:33;3.90;;;2.90;;
14817;SDS011;7500;57.698;11.986;2023-07-29T01:47:00;5.43;;;3.10;;
14817;SDS011;7500;57.698;11.986;2023-07-29T01:49:26;4.43;;;3.07;;
14817;SDS011;7500;57.698;11.986;2023-07-29T01:51:53;3.23;;;2.93;;
14817;SDS011;7500;57.698;11.986;2023-07-29T01:54:19;3.50;;;2.90;;
14817;SDS011;7500;57.698;11.986;2023-07-29T01:56:46;3.10;;;2.87;;
14817;SDS011;7500;57.698;11.986;2023-07-29T01:59:14;3.17;;;2.80;;
14817;SDS011;7500;57.698;11.986;2023-07-29T02:01:41;4.03;;;3.53;;
14817;SDS011;7500;57.698;11.986;2023-07-29T02:04:08;3.60;;;3.30;;
14817;SDS011;7500;57.698;11.986;2023-07-29T02:06:35;3.13;;;2.83;;
14817;SDS011;7500;57.698;11.986;2023-07-29T02:09:02;5.37;;;3.07;;
14817;SDS011;7500;57.698;11.986;2023-07-29T02:11:29;3.57;;;3.27;;
14817;SDS011;7500;57.698;11.986;2023-07-29T02:13:56;5.03;;;2.97;;
14817;SDS011;7500;57.698;11.986;2023-07-29T02:16:24;4.13;;;3.20;;
14817;SDS011;7500;57.698;11.986;2023-07-29T02:18:51;3.40;;;3.13;;
14817;SDS011;7500;57.698;11.986;2023-07-29T02:21:17;3.50;;;3.00;;
14817;SDS011;7500;57.698;11.986;2023-07-29T02:23:44;5.53;;;2.90;;
14817;SDS011;7500;57.698;11.986;2023-07-29T02:26:11;3.57;;;3.13;;
14817;SDS011;7500;57.698;11.986;2023-07-29T02:28:37;5.90;;;3.13;;
14817;SDS011;7500;57.698;11.986;2023-07-29T02:31:12;4.10;;;3.33;;
14817;SDS011;7500;57.698;11.986;2023-07-29T02:33:40;3.40;;;3.10;;
14817;SDS011;7500;57.698;11.986;2023-07-29T02:36:06;6.17;;;2.90;;
14817;SDS011;7500;57.698;11.986;2023-07-29T02:38:33;4.23;;;3.50;;
14817;SDS011;7500;57.698;11.986;2023-07-29T02:40:59;5.47;;;3.20;;
14817;SDS011;7500;57.698;11.986;2023-07-29T02:43:26;3.73;;;3.40;;
14817;SDS011;7500;57.698;11.986;2023-07-29T02:45:52;5.57;;;3.37;;
14817;SDS011;7500;57.698;11.986;2023-07-29T02:48:19;4.07;;;3.30;;
14817;SDS011;7500;57.698;11.986;2023-07-29T02:50:47;4.73;;;3.13;;
14817;SDS011;7500;57.698;11.986;2023-07-29T02:53:14;3.50;;;3.20;;
14817;SDS011;7500;57.698;11.986;2023-07-29T02:55:40;3.90;;;3.07;;
14817;SDS011;7500;57.698;11.986;2023-07-29T02:58:07;4.00;;;3.30;;
14817;SDS011;7500;57.698;11.986;2023-07-29T03:00:34;3.50;;;3.20;;
14817;SDS011;7500;57.698;11.986;2023-07-29T03:03:00;3.60;;;3.30;;
14817;SDS011;7500;57.698;11.986;2023-07-29T03:05:27;3.23;;;2.93;;
14817;SDS011;7500;57.698;11.986;2023-07-29T03:07:55;4.27;;;3.50;;
14817;SDS011;7500;57.698;11.986;2023-07-29T03:10:21;3.63;;;3.10;;
14817;SDS011;7500;57.698;11.986;2023-07-29T03:12:48;4.90;;;3.30;;
14817;SDS011;7500;57.698;11.986;2023-07-29T03:15:15;5.53;;;3.23;;
14817;SDS011;7500;57.698;11.986;2023-07-29T03:17:41;7.10;;;3.23;;
14817;SDS011;7500;57.698;11.986;2023-07-29T03:20:08;3.30;;;3.00;;
14817;SDS011;7500;57.698;11.986;2023-07-29T03:22:35;3.90;;;3.50;;
14817;SDS011;7500;57.698;11.986;2023-07-29T03:25:03;3.43;;;3.13;;
14817;SDS011;7500;57.698;11.986;2023-07-29T03:27:31;4.40;;;3.27;;
14817;SDS011;7500;57.698;11.986;2023-07-29T03:29:58;4.87;;;3.30;;
14817;SDS011;7500;57.698;11.986;2023-07-29T03:32:25;4.30;;;3.10;;
14817;SDS011;7500;57.698;11.986;2023-07-29T03:34:52;3.20;;;2.90;;
14817;SDS011;7500;57.698;11.986;2023-07-29T03:37:19;3.20;;;2.87;;
14817;SDS011;7500;57.698;11.986;2023-07-29T03:39:46;4.97;;;3.30;;
14817;SDS011;7500;57.698;11.986;2023-07-29T03:42:14;4.70;;;3.67;;
14817;SDS011;7500;57.698;11.986;2023-07-29T03:44:41;3.23;;;2.90;;
14817;SDS011;7500;57.698;11.986;2023-07-29T03:47:07;4.07;;;3.50;;
14817;SDS011;7500;57.698;11.986;2023-07-29T03:49:34;3.73;;;3.40;;
14817;SDS011;7500;57.698;11.986;2023-07-29T03:52:00;4.10;;;3.10;;
14817;SDS011;7500;57.698;11.986;2023-07-29T03:54:27;3.40;;;3.00;;
14817;SDS011;7500;57.698;11.986;2023-07-29T03:56:54;3.93;;;3.13;;
14817;SDS011;7500;57.698;11.986;2023-07-29T03:59:22;3.43;;;2.97;;
14817;SDS011;7500;57.698;11.986;2023-07-29T04:01:48;3.67;;;3.27;;
14817;SDS011;7500;57.698;11.986;2023-07-29T04:04:15;5.50;;;2.83;;
14817;SDS011;7500;57.698;11.986;2023-07-29T04:06:42;3.57;;;3.27;;
14817;SDS011;7500;57.698;11.986;2023-07-29T04:09:08;4.63;;;2.90;;
14817;SDS011;7500;57.698;11.986;2023-07-29T04:11:35;3.43;;;3.13;;
14817;SDS011;7500;57.698;11.986;2023-07-29T04:14:02;4.90;;;3.23;;
14817;SDS011;7500;57.698;11.986;2023-07-29T04:16:30;3.30;;;3.00;;
14817;SDS011;7500;57.698;11.986;2023-07-29T04:18:56;3.67;;;3.30;;
14817;SDS011;7500;57.698;11.986;2023-07-29T04:21:23;3.27;;;2.97;;
14817;SDS011;7500;57.698;11.986;2023-07-29T04:23:49;5.50;;;3.27;;
14817;SDS011;7500;57.698;11.986;2023-07-29T04:26:16;3.77;;;3.30;;
14817;SDS011;7500;57.698;11.986;2023-07-29T04:28:42;3.70;;;2.90;;
14817;SDS011;7500;57.698;11.986;2023-07-29T04:31:09;4.90;;;3.30;;
14817;SDS011;7500;57.698;11.986;2023-07-29T04:33:37;3.60;;;3.07;;
14817;SDS011;7500;57.698;11.986;2023-07-29T04:36:04;3.00;;;2.60;;
14817;SDS011;7500;57.698;11.986;2023-07-29T04:38:31;3.17;;;2.87;;
14817;SDS011;7500;57.698;11.986;2023-07-29T04:40:58;3.80;;;3.10;;
14817;SDS011;7500;57.698;11.986;2023-07-29T04:43:27;3.00;;;2.70;;
14817;SDS011;7500;57.698;11.986;2023-07-29T04:45:54;3.80;;;2.90;;
14817;SDS011;7500;57.698;11.986;2023-07-29T04:48:20;3.10;;;2.80;;
14817;SDS011;7500;57.698;11.986;2023-07-29T04:50:48;3.83;;;3.23;;
14817;SDS011;7500;57.698;11.986;2023-07-29T04:53:15;3.57;;;3.27;;
14817;SDS011;7500;57.698;11.986;2023-07-29T04:55:41;5.10;;;3.30;;
14817;SDS011;7500;57.698;11.986;2023-07-29T04:58:08;3.57;;;3.10;;
14817;SDS011;7500;57.698;11.986;2023-07-29T05:00:35;5.67;;;3.30;;
14817;SDS011;7500;57.698;11.986;2023-07-29T05:03:01;3.60;;;3.20;;
14817;SDS011;7500;57.698;11.986;2023-07-29T05:05:28;4.37;;;2.93;;
14817;SDS011;7500;57.698;11.986;2023-07-29T05:07:56;4.00;;;3.40;;
14817;SDS011;7500;57.698;11.986;2023-07-29T05:10:23;4.20;;;3.10;;
14817;SDS011;7500;57.698;11.986;2023-07-29T05:12:50;4.63;;;3.00;;
14817;SDS011;7500;57.698;11.986;2023-07-29T05:15:16;3.17;;;2.87;;
14817;SDS011;7500;57.698;11.986;2023-07-29T05:17:43;3.40;;;3.10;;
14817;SDS011;7500;57.698;11.986;2023-07-29T05:20:10;3.20;;;2.90;;
14817;SDS011;7500;57.698;11.986;2023-07-29T05:22:37;4.10;;;3.13;;
14817;SDS011;7500;57.698;11.986;2023-07-29T05:25:05;3.67;;;3.10;;
14817;SDS011;7500;57.698;11.986;2023-07-29T05:27:32;3.60;;;3.10;;
14817;SDS011;7500;57.698;11.986;2023-07-29T05:29:59;5.00;;;2.90;;
14817;SDS011;7500;57.698;11.986;2023-07-29T05:32:25;3.87;;;2.97;;
14817;SDS011;7500;57.698;11.986;2023-07-29T05:34:52;3.73;;;2.80;;
14817;SDS011;7500;57.698;11.986;2023-07-29T05:37:19;3.57;;;2.90;;
14817;SDS011;7500;57.698;11.986;2023-07-29T05:39:45;3.27;;;2.33;;
14817;SDS011;7500;57.698;11.986;2023-07-29T05:42:13;4.07;;;2.70;;
14817;SDS011;7500;57.698;11.986;2023-07-29T05:44:40;2.93;;;2.67;;
14817;SDS011;7500;57.698;11.986;2023-07-29T05:47:06;3.07;;;2.60;;
14817;SDS011;7500;57.698;11.986;2023-07-29T05:49:33;2.70;;;2.50;;
14817;SDS011;7500;57.698;11.986;2023-07-29T05:51:59;2.70;;;2.50;;
14817;SDS011;7500;57.698;11.986;2023-07-29T05:54:26;2.87;;;2.67;;
14817;SDS011;7500;57.698;11.986;2023-07-29T05:56:53;3.13;;;2.70;;
14817;SDS011;7500;57.698;11.986;2023-07-29T05:59:21;3.00;;;2.37;;
14817;SDS011;7500;57.698;11.986;2023-07-29T06:01:47;3.53;;;2.63;;
14817;SDS011;7500;57.698;11.986;2023-07-29T06:04:14;2.53;;;2.33;;
14817;SDS011;7500;57.698;11.986;2023-07-29T06:06:40;5.80;;;2.60;;
14817;SDS011;7500;57.698;11.986;2023-07-29T06:09:07;4.57;;;2.70;;
14817;SDS011;7500;57.698;11.986;2023-07-29T06:11:34;4.87;;;2.60;;
14817;SDS011;7500;57.698;11.986;2023-07-29T06:14:00;3.43;;;2.30;;
14817;SDS011;7500;57.698;11.986;2023-07-29T06:16:28;2.87;;;2.23;;
14817;SDS011;7500;57.698;11.986;2023-07-29T06:18:55;3.30;;;2.40;;
14817;SDS011;7500;57.698;11.986;2023-07-29T06:21:21;5.60;;;2.77;;
14817;SDS011;7500;57.698;11.986;2023-07-29T06:23:48;2.80;;;2.60;;
14817;SDS011;7500;57.698;11.986;2023-07-29T06:26:15;4.17;;;2.40;;
14817;SDS011;7500;57.698;11.986;2023-07-29T06:28:41;2.70;;;2.30;;
14817;SDS011;7500;57.698;11.986;2023-07-29T06:31:08;2.50;;;2.30;;
14817;SDS011;7500;57.698;11.986;2023-07-29T06:33:36;4.20;;;2.47;;
14817;SDS011;7500;57.698;11.986;2023-07-29T06:36:03;4.40;;;2.47;;
14817;SDS011;7500;57.698;11.986;2023-07-29T06:38:29;3.23;;;2.53;;
14817;SDS011;7500;57.698;11.986;2023-07-29T06:40:56;3.40;;;2.27;;
14817;SDS011;7500;57.698;11.986;2023-07-29T06:43:22;4.10;;;3.17;;
14817;SDS011;7500;57.698;11.986;2023-07-29T06:45:49;5.60;;;2.57;;
14817;SDS011;7500;57.698;11.986;2023-07-29T06:48:16;3.67;;;2.33;;
14817;SDS011;7500;57.698;11.986;2023-07-29T06:50:45;4.10;;;2.60;;
14817;SDS011;7500;57.698;11.986;2023-07-29T06:53:12;4.03;;;2.83;;
14817;SDS011;7500;57.698;11.986;2023-07-29T06:55:38;2.50;;;2.30;;
14817;SDS011;7500;57.698;11.986;2023-07-29T06:58:05;2.77;;;2.43;;
14817;SDS011;7500;57.698;11.986;2023-07-29T07:00:32;2.63;;;2.27;;
14817;SDS011;7500;57.698;11.986;2023-07-29T07:02:58;2.57;;;2.37;;
14817;SDS011;7500;57.698;11.986;2023-07-29T07:05:25;2.80;;;2.23;;
14817;SDS011;7500;57.698;11.986;2023-07-29T07:07:53;3.40;;;2.37;;
14817;SDS011;7500;57.698;11.986;2023-07-29T07:10:20;4.10;;;2.20;;
14817;SDS011;7500;57.698;11.986;2023-07-29T07:12:46;2.63;;;2.20;;
14817;SDS011;7500;57.698;11.986;2023-07-29T07:15:13;4.60;;;2.50;;
14817;SDS011;7500;57.698;11.986;2023-07-29T07:17:39;3.47;;;2.67;;
14817;SDS011;7500;57.698;11.986;2023-07-29T07:20:07;4.40;;;2.40;;
14817;SDS011;7500;57.698;11.986;2023-07-29T07:22:33;3.80;;;2.50;;
14817;SDS011;7500;57.698;11.986;2023-07-29T07:25:01;4.03;;;2.60;;
14817;SDS011;7500;57.698;11.986;2023-07-29T07:27:28;2.70;;;2.40;;
14817;SDS011;7500;57.698;11.986;2023-07-29T07:29:55;3.20;;;2.20;;
14817;SDS011;7500;57.698;11.986;2023-07-29T07:32:21;4.20;;;2.67;;
14817;SDS011;7500;57.698;11.986;2023-07-29T07:34:48;4.87;;;2.37;;
14817;SDS011;7500;57.698;11.986;2023-07-29T07:37:15;2.63;;;2.00;;
14817;SDS011;7500;57.698;11.986;2023-07-29T07:39:41;3.43;;;3.00;;
14817;SDS011;7500;57.698;11.986;2023-07-29T07:42:09;2.90;;;2.63;;
14817;SDS011;7500;57.698;11.986;2023-07-29T07:44:36;3.63;;;2.30;;
14817;SDS011;7500;57.698;11.986;2023-07-29T07:47:03;2.63;;;2.40;;
14817;SDS011;7500;57.698;11.986;2023-07-29T07:49:29;2.77;;;2.33;;
14817;SDS011;7500;57.698;11.986;2023-07-29T07:51:56;3.27;;;2.53;;
14817;SDS011;7500;57.698;11.986;2023-07-29T07:54:23;3.77;;;2.43;;
14817;SDS011;7500;57.698;11.986;2023-07-29T07:56:49;3.73;;;2.33;;
14817;SDS011;7500;57.698;11.986;2023-07-29T07:59:17;3.93;;;2.70;;
14817;SDS011;7500;57.698;11.986;2023-07-29T08:01:44;3.27;;;2.30;;
14817;SDS011;7500;57.698;11.986;2023-07-29T08:04:10;3.13;;;2.40;;
14817;SDS011;7500;57.698;11.986;2023-07-29T08:06:37;3.17;;;2.37;;
14817;SDS011;7500;57.698;11.986;2023-07-29T08:09:04;5.07;;;2.70;;
14817;SDS011;7500;57.698;11.986;2023-07-29T08:11:30;2.80;;;2.40;;
14817;SDS011;7500;57.698;11.986;2023-07-29T08:13:58;3.30;;;2.37;;
14817;SDS011;7500;57.698;11.986;2023-07-29T08:16:26;4.43;;;2.80;;
14817;SDS011;7500;57.698;11.986;2023-07-29T08:18:52;3.73;;;2.97;;
14817;SDS011;7500;57.698;11.986;2023-07-29T08:21:19;2.60;;;2.40;;
14817;SDS011;7500;57.698;11.986;2023-07-29T08:23:46;3.20;;;2.70;;
14817;SDS011;7500;57.698;11.986;2023-07-29T08:26:12;2.70;;;2.33;;
14817;SDS011;7500;57.698;11.986;2023-07-29T08:28:39;3.50;;;2.80;;
14817;SDS011;7500;57.698;11.986;2023-07-29T08:31:06;5.43;;;2.87;;
14817;SDS011;7500;57.698;11.986;2023-07-29T08:33:34;4.13;;;2.87;;
14817;SDS011;7500;57.698;11.986;2023-07-29T08:36:01;4.50;;;2.73;;
14817;SDS011;7500;57.698;11.986;2023-07-29T08:38:28;4.03;;;2.57;;
14817;SDS011;7500;57.698;11.986;2023-07-29T08:40:57;3.23;;;2.53;;
14817;SDS011;7500;57.698;11.986;2023-07-29T08:43:27;4.03;;;3.00;;
14817;SDS011;7500;57.698;11.986;2023-07-29T08:45:55;4.77;;;2.63;;
14817;SDS011;7500;57.698;11.986;2023-07-29T08:48:24;3.03;;;2.77;;
14817;SDS011;7500;57.698;11.986;2023-07-29T08:50:57;4.80;;;3.00;;
14817;SDS011;7500;57.698;11.986;2023-07-29T08:53:24;4.90;;;3.00;;
14817;SDS011;7500;57.698;11.986;2023-07-29T08:55:52;6.40;;;2.90;;
14817;SDS011;7500;57.698;11.986;2023-07-29T08:58:18;4.37;;;3.00;;
14817;SDS011;7500;57.698;11.986;2023-07-29T09:00:46;5.30;;;2.97;;
14817;SDS011;7500;57.698;11.986;2023-07-29T09:03:13;3.10;;;2.60;;
14817;SDS011;7500;57.698;11.986;2023-07-29T09:05:40;4.10;;;2.80;;
14817;SDS011;7500;57.698;11.986;2023-07-29T09:08:08;3.63;;;3.20;;
14817;SDS011;7500;57.698;11.986;2023-07-29T09:10:35;5.87;;;3.27;;
14817;SDS011;7500;57.698;11.986;2023-07-29T09:13:01;4.70;;;2.80;;
14817;SDS011;7500;57.698;11.986;2023-07-29T09:15:29;3.70;;;2.57;;
14817;SDS011;7500;57.698;11.986;2023-07-29T09:17:55;6.30;;;3.10;;
14817;SDS011;7500;57.698;11.986;2023-07-29T09:20:25;5.10;;;2.97;;
14817;SDS011;7500;57.698;11.986;2023-07-29T09:22:53;3.60;;;2.63;;
14817;SDS011;7500;57.698;11.986;2023-07-29T09:25:23;3.93;;;3.23;;
14817;SDS011;7500;57.698;11.986;2023-07-29T09:27:50;7.70;;;3.03;;
14817;SDS011;7500;57.698;11.986;2023-07-29T09:30:17;3.90;;;2.90;;
14817;SDS011;7500;57.698;11.986;2023-07-29T09:32:44;3.63;;;3.20;;
14817;SDS011;7500;57.698;11.986;2023-07-29T09:35:10;7.57;;;3.10;;
14817;SDS011;7500;57.698;11.986;2023-07-29T09:37:37;3.97;;;3.60;;
14817;SDS011;7500;57.698;11.986;2023-07-29T09:40:04;6.40;;;3.70;;
14817;SDS011;7500;57.698;11.986;2023-07-29T09:42:33;6.23;;;3.70;;
14817;SDS011;7500;57.698;11.986;2023-07-29T09:44:59;6.63;;;3.70;;
14817;SDS011;7500;57.698;11.986;2023-07-29T09:47:26;4.10;;;3.70;;
14817;SDS011;7500;57.698;11.986;2023-07-29T09:49:52;5.53;;;3.67;;
14817;SDS011;7500;57.698;11.986;2023-07-29T09:52:20;5.57;;;3.50;;
14817;SDS011;7500;57.698;11.986;2023-07-29T09:54:48;4.97;;;3.20;;
14817;SDS011;7500;57.698;11.986;2023-07-29T09:57:15;4.90;;;3.60;;
14817;SDS011;7500;57.698;11.986;2023-07-29T09:59:44;3.53;;;3.17;;
14817;SDS011;7500;57.698;11.986;2023-07-29T10:02:19;5.17;;;3.30;;
14817;SDS011;7500;57.698;11.986;2023-07-29T10:04:47;5.97;;;3.70;;
14817;SDS011;7500;57.698;11.986;2023-07-29T10:07:14;6.20;;;3.40;;
14817;SDS011;7500;57.698;11.986;2023-07-29T10:09:41;3.30;;;3.00;;
14817;SDS011;7500;57.698;11.986;2023-07-29T10:12:08;4.10;;;3.20;;
14817;SDS011;7500;57.698;11.986;2023-07-29T10:14:37;4.63;;;3.10;;
14817;SDS011;7500;57.698;11.986;2023-07-29T10:17:05;4.77;;;3.07;;
14817;SDS011;7500;57.698;11.986;2023-07-29T10:19:32;3.37;;;3.07;;
14817;SDS011;7500;57.698;11.986;2023-07-29T10:22:00;3.07;;;2.77;;
14817;SDS011;7500;57.698;11.986;2023-07-29T10:24:29;3.60;;;2.90;;
14817;SDS011;7500;57.698;11.986;2023-07-29T10:26:57;4.60;;;3.03;;
14817;SDS011;7500;57.698;11.986;2023-07-29T10:29:24;4.20;;;3.20;;
14817;SDS011;7500;57.698;11.986;2023-07-29T10:31:50;4.53;;;3.50;;
14817;SDS011;7500;57.698;11.986;2023-07-29T10:34:20;2.90;;;2.43;;
14817;SDS011;7500;57.698;11.986;2023-07-29T10:36:47;5.50;;;3.10;;
14817;SDS011;7500;57.698;11.986;2023-07-29T10:39:14;3.00;;;2.77;;
14817;SDS011;7500;57.698;11.986;2023-07-29T10:47:11;2.97;;;2.50;;
14817;SDS011;7500;57.698;11.986;2023-07-29T10:49:41;3.40;;;2.80;;
14817;SDS011;7500;57.698;11.986;2023-07-29T10:52:07;4.40;;;3.80;;
14817;SDS011;7500;57.698;11.986;2023-07-29T10:54:41;4.60;;;3.63;;
14817;SDS011;7500;57.698;11.986;2023-07-29T10:57:08;6.70;;;4.57;;
14817;SDS011;7500;57.698;11.986;2023-07-29T10:59:38;7.20;;;4.90;;
14817;SDS011;7500;57.698;11.986;2023-07-29T11:02:11;6.07;;;4.87;;
14817;SDS011;7500;57.698;11.986;2023-07-29T11:04:47;7.00;;;4.80;;
14817;SDS011;7500;57.698;11.986;2023-07-29T11:07:20;7.33;;;4.30;;
14817;SDS011;7500;57.698;11.986;2023-07-29T11:09:55;6.07;;;4.63;;
14817;SDS011;7500;57.698;11.986;2023-07-29T11:12:41;6.43;;;4.60;;
14817;SDS011;7500;57.698;11.986;2023-07-29T11:15:15;5.30;;;4.80;;
14817;SDS011;7500;57.698;11.986;2023-07-29T11:17:42;6.07;;;4.30;;
14817;SDS011;7500;57.698;11.986;2023-07-29T11:20:11;4.73;;;4.17;;
14817;SDS011;7500;57.698;11.986;2023-07-29T11:22:38;4.23;;;3.83;;
14817;SDS011;7500;57.698;11.986;2023-07-29T11:25:06;4.17;;;3.77;;
14817;SDS011;7500;57.698;11.986;2023-07-29T11:27:33;6.30;;;3.70;;
14817;SDS011;7500;57.698;11.986;2023-07-29T11:30:00;3.93;;;3.53;;
14817;SDS011;7500;57.698;11.986;2023-07-29T11:32:27;7.60;;;3.50;;
14817;SDS011;7500;57.698;11.986;2023-07-29T11:34:54;4.93;;;3.40;;
14817;SDS011;7500;57.698;11.986;2023-07-29T11:37:22;5.23;;;3.70;;
14817;SDS011;7500;57.698;11.986;2023-07-29T11:39:48;3.40;;;3.10;;
14817;SDS011;7500;57.698;11.986;2023-07-29T11:42:16;3.50;;;3.20;;
14817;SDS011;7500;57.698;11.986;2023-07-29T11:44:43;3.17;;;2.60;;
14817;SDS011;7500;57.698;11.986;2023-07-29T11:47:10;3.33;;;2.70;;
14817;SDS011;7500;57.698;11.986;2023-07-29T11:49:37;2.63;;;2.43;;
14817;SDS011;7500;57.698;11.986;2023-07-29T11:52:06;3.20;;;2.90;;
14817;SDS011;7500;57.698;11.986;2023-07-29T11:54:34;2.50;;;2.30;;
14817;SDS011;7500;57.698;11.986;2023-07-29T11:57:01;2.73;;;2.17;;
14817;SDS011;7500;57.698;11.986;2023-07-29T11:59:27;3.10;;;2.10;;
14817;SDS011;7500;57.698;11.986;2023-07-29T12:01:54;1.70;;;1.60;;
14817;SDS011;7500;57.698;11.986;2023-07-29T12:04:21;2.30;;;1.87;;
14817;SDS011;7500;57.698;11.986;2023-07-29T12:06:47;1.67;;;1.57;;
14817;SDS011;7500;57.698;11.986;2023-07-29T12:09:14;1.40;;;1.30;;
14817;SDS011;7500;57.698;11.986;2023-07-29T12:11:42;1.50;;;1.40;;
14817;SDS011;7500;57.698;11.986;2023-07-29T12:14:09;1.57;;;1.47;;
14817;SDS011;7500;57.698;11.986;2023-07-29T12:16:40;1.50;;;1.40;;
14817;SDS011;7500;57.698;11.986;2023-07-29T12:19:06;1.10;;;1.10;;
14817;SDS011;7500;57.698;11.986;2023-07-29T12:21:33;1.57;;;1.10;;
14817;SDS011;7500;57.698;11.986;2023-07-29T12:24:00;1.00;;;1.00;;
14817;SDS011;7500;57.698;11.986;2023-07-29T12:26:27;1.07;;;1.07;;
14817;SDS011;7500;57.698;11.986;2023-07-29T12:28:55;1.17;;;1.07;;
14817;SDS011;7500;57.698;11.986;2023-07-29T12:31:28;1.47;;;1.20;;
14817;SDS011;7500;57.698;11.986;2023-07-29T12:33:57;1.10;;;1.10;;
14817;SDS011;7500;57.698;11.986;2023-07-29T12:36:27;1.10;;;1.10;;
14817;SDS011;7500;57.698;11.986;2023-07-29T12:38:53;1.37;;;1.27;;
14817;SDS011;7500;57.698;11.986;2023-07-29T12:41:20;1.63;;;1.30;;
14817;SDS011;7500;57.698;11.986;2023-07-29T12:43:46;1.43;;;1.33;;
14817;SDS011;7500;57.698;11.986;2023-07-29T12:46:14;1.10;;;1.10;;
14817;SDS011;7500;57.698;11.986;2023-07-29T12:48:41;1.10;;;1.10;;
14817;SDS011;7500;57.698;11.986;2023-07-29T12:51:08;1.20;;;1.20;;
14817;SDS011;7500;57.698;11.986;2023-07-29T12:53:34;2.90;;;1.40;;
14817;SDS011;7500;57.698;11.986;2023-07-29T12:56:01;1.43;;;1.30;;
14817;SDS011;7500;57.698;11.986;2023-07-29T12:58:27;1.67;;;1.27;;
14817;SDS011;7500;57.698;11.986;2023-07-29T13:00:54;1.20;;;1.20;;
14817;SDS011;7500;57.698;11.986;2023-07-29T13:03:22;1.40;;;1.10;;
14817;SDS011;7500;57.698;11.986;2023-07-29T13:05:48;1.30;;;1.20;;
14817;SDS011;7500;57.698;11.986;2023-07-29T13:08:15;1.30;;;1.20;;
14817;SDS011;7500;57.698;11.986;2023-07-29T13:10:42;1.20;;;1.20;;
14817;SDS011;7500;57.698;11.986;2023-07-29T13:13:08;1.30;;;1.30;;
14817;SDS011;7500;57.698;11.986;2023-07-29T13:15:35;1.77;;;1.67;;
14817;SDS011;7500;57.698;11.986;2023-07-29T13:18:01;1.70;;;1.60;;
14817;SDS011;7500;57.698;11.986;2023-07-29T13:20:30;1.90;;;1.80;;
14817;SDS011;7500;57.698;11.986;2023-07-29T13:22:58;1.70;;;1.60;;
14817;SDS011;7500;57.698;11.986;2023-07-29T13:25:25;1.50;;;1.40;;
14817;SDS011;7500;57.698;11.986;2023-07-29T13:27:51;1.53;;;1.33;;
14817;SDS011;7500;57.698;11.986;2023-07-29T13:30:18;1.57;;;1.47;;
14817;SDS011;7500;57.698;11.986;2023-07-29T13:32:45;1.40;;;1.30;;
14817;SDS011;7500;57.698;11.986;2023-07-29T13:35:11;1.60;;;1.43;;
14817;SDS011;7500;57.698;11.986;2023-07-29T13:37:39;1.70;;;1.60;;
14817;SDS011;7500;57.698;11.986;2023-07-29T13:40:06;1.63;;;1.53;;
14817;SDS011;7500;57.698;11.986;2023-07-29T13:42:33;1.60;;;1.50;;
14817;SDS011;7500;57.698;11.986;2023-07-29T13:45:00;1.77;;;1.60;;
14817;SDS011;7500;57.698;11.986;2023-07-29T13:47:26;1.50;;;1.40;;
14817;SDS011;7500;57.698;11.986;2023-07-29T13:49:53;1.43;;;1.33;;
14817;SDS011;7500;57.698;11.986;2023-07-29T13:52:20;2.17;;;1.50;;
14817;SDS011;7500;57.698;11.986;2023-07-29T13:54:48;1.60;;;1.50;;
14817;SDS011;7500;57.698;11.986;2023-07-29T13:57:14;1.63;;;1.53;;
14817;SDS011;7500;57.698;11.986;2023-07-29T13:59:41;1.50;;;1.40;;
14817;SDS011;7500;57.698;11.986;2023-07-29T14:02:07;1.80;;;1.70;;
14817;SDS011;7500;57.698;11.986;2023-07-29T14:04:34;1.43;;;1.30;;
14817;SDS011;7500;57.698;11.986;2023-07-29T14:07:01;1.70;;;1.60;;
14817;SDS011;7500;57.698;11.986;2023-07-29T14:09:27;2.23;;;2.00;;
14817;SDS011;7500;57.698;11.986;2023-07-29T14:11:55;3.60;;;3.13;;
14817;SDS011;7500;57.698;11.986;2023-07-29T14:14:22;2.47;;;2.13;;
14817;SDS011;7500;57.698;11.986;2023-07-29T14:16:49;1.87;;;1.77;;
14817;SDS011;7500;57.698;11.986;2023-07-29T14:19:15;1.63;;;1.53;;
14817;SDS011;7500;57.698;11.986;2023-07-29T14:21:42;1.50;;;1.40;;
14817;SDS011;7500;57.698;11.986;2023-07-29T14:24:08;3.40;;;3.10;;
14817;SDS011;7500;57.698;11.986;2023-07-29T14:26:35;1.80;;;1.70;;
14817;SDS011;7500;57.698;11.986;2023-07-29T14:29:03;1.90;;;1.80;;
14817;SDS011;7500;57.698;11.986;2023-07-29T14:31:30;1.53;;;1.10;;
14817;SDS011;7500;57.698;11.986;2023-07-29T14:33:56;1.00;;;1.00;;
14817;SDS011;7500;57.698;11.986;2023-07-29T14:36:23;3.30;;;1.50;;
14817;SDS011;7500;57.698;11.986;2023-07-29T14:38:50;1.40;;;1.30;;
14817;SDS011;7500;57.698;11.986;2023-07-29T14:41:16;1.47;;;1.30;;
14817;SDS011;7500;57.698;11.986;2023-07-29T14:43:43;1.37;;;1.33;;
14817;SDS011;7500;57.698;11.986;2023-07-29T14:46:11;1.53;;;1.43;;
14817;SDS011;7500;57.698;11.986;2023-07-29T14:48:38;2.20;;;1.40;;
14817;SDS011;7500;57.698;11.986;2023-07-29T14:51:04;1.47;;;1.30;;
14817;SDS011;7500;57.698;11.986;2023-07-29T14:53:31;1.30;;;1.20;;